createdAt,value
2023-05-08T00:01:31.295Z,101046.34
2023-05-08T00:03:58.677Z,101045.45
2023-05-08T00:06:27.712Z,101046.20
2023-05-08T00:08:55.541Z,101046.32
2023-05-08T00:11:22.619Z,101048.70
2023-05-08T00:13:49.742Z,101048.15
2023-05-08T00:16:16.856Z,101052.65
2023-05-08T00:18:44.515Z,101052.08
2023-05-08T00:21:11.473Z,101053.04
2023-05-08T00:23:38.607Z,101056.30
2023-05-08T00:26:05.574Z,101058.77
2023-05-08T00:28:32.443Z,101061.61
2023-05-08T00:31:02.534Z,101061.95
2023-05-08T00:33:29.460Z,101063.88
2023-05-08T00:36:03.640Z,101066.85
2023-05-08T00:38:34.411Z,101072.61
2023-05-08T00:41:01.863Z,101076.89
2023-05-08T00:43:29.261Z,101081.34
2023-05-08T00:45:56.874Z,101083.52
2023-05-08T00:48:24.061Z,101085.81
2023-05-08T00:50:52.668Z,101087.91
2023-05-08T00:53:19.867Z,101086.78
2023-05-08T00:55:46.884Z,101085.04
2023-05-08T00:58:13.802Z,101083.88
2023-05-08T01:00:42.192Z,101082.17
2023-05-08T01:03:09.667Z,101082.83
2023-05-08T01:05:36.850Z,101078.96
2023-05-08T01:08:04.311Z,101077.45
2023-05-08T01:10:53.826Z,101076.09
2023-05-08T01:13:37.821Z,101076.09
2023-05-08T01:16:13.347Z,101079.64
2023-05-08T01:18:44.840Z,101082.02
2023-05-08T01:21:21.498Z,101078.23
2023-05-08T01:24:13.284Z,101078.22
2023-05-08T01:27:09.458Z,101075.32
2023-05-08T01:30:07.454Z,101080.55
2023-05-08T01:32:39.440Z,101082.30
2023-05-08T01:35:33.181Z,101082.02
2023-05-08T01:38:03.573Z,101083.44
2023-05-08T01:40:45.772Z,101086.67
2023-05-08T01:44:06.770Z,101089.80
2023-05-08T01:46:34.440Z,101094.98
2023-05-08T01:49:12.717Z,101096.73
2023-05-08T01:51:45.270Z,101099.95
2023-05-08T01:54:16.638Z,101099.92
2023-05-08T01:56:44.903Z,101099.71
2023-05-08T01:59:14.385Z,101097.90
2023-05-08T02:01:43.074Z,101099.95
2023-05-08T02:04:10.248Z,101096.94
2023-05-08T02:06:37.233Z,101102.35
2023-05-08T02:09:04.221Z,101101.30
2023-05-08T02:11:32.106Z,101102.63
2023-05-08T02:13:59.133Z,101106.52
2023-05-08T02:16:26.173Z,101108.58
2023-05-08T02:18:54.451Z,101106.61
2023-05-08T02:21:21.342Z,101106.56
2023-05-08T02:23:48.261Z,101107.34
2023-05-08T02:26:15.815Z,101111.05
2023-05-08T02:28:42.743Z,101109.42
2023-05-08T02:31:10.420Z,101111.08
2023-05-08T02:33:38.565Z,101116.55
2023-05-08T02:36:05.853Z,101117.92
2023-05-08T02:38:33.913Z,101121.13
2023-05-08T02:41:02.000Z,101121.49
2023-05-08T02:43:29.105Z,101119.83
2023-05-08T02:45:58.942Z,101120.07
2023-05-08T02:48:37.098Z,101117.30
2023-05-08T02:51:16.496Z,101123.52
2023-05-08T02:53:47.299Z,101122.42
2023-05-08T02:56:36.800Z,101124.20
2023-05-08T02:59:21.469Z,101123.61
2023-05-08T03:02:22.429Z,101121.06
2023-05-08T03:04:55.695Z,101127.77
2023-05-08T03:07:24.614Z,101131.09
2023-05-08T03:09:55.755Z,101132.60
2023-05-08T03:12:24.929Z,101137.35
2023-05-08T03:15:01.005Z,101138.34
2023-05-08T03:17:28.884Z,101145.33
2023-05-08T03:19:57.828Z,101148.19
2023-05-08T03:22:25.359Z,101148.87
2023-05-08T03:24:52.921Z,101150.22
2023-05-08T03:27:20.505Z,101156.27
2023-05-08T03:29:47.979Z,101157.73
2023-05-08T03:32:15.035Z,101165.09
2023-05-08T03:34:42.273Z,101167.33
2023-05-08T03:37:09.199Z,101163.92
2023-05-08T03:39:36.302Z,101164.45
2023-05-08T03:42:03.522Z,101164.46
2023-05-08T03:44:30.525Z,101166.58
2023-05-08T03:46:58.645Z,101166.35
2023-05-08T03:49:26.819Z,101167.73
2023-05-08T03:51:54.913Z,101172.48
2023-05-08T03:54:25.507Z,101174.45
2023-05-08T03:56:54.149Z,101176.10
2023-05-08T04:00:03.607Z,101177.43
2023-05-08T04:02:54.441Z,101177.38
2023-05-08T04:05:48.345Z,101178.69
2023-05-08T04:08:30.361Z,101183.30
2023-05-08T04:11:21.233Z,101183.83
2023-05-08T04:13:50.637Z,101179.52
2023-05-08T04:16:22.077Z,101179.55
2023-05-08T04:18:50.369Z,101182.35
2023-05-08T04:21:22.901Z,101181.13
2023-05-08T04:23:50.952Z,101178.30
2023-05-08T04:26:18.511Z,101178.10
2023-05-08T04:28:46.996Z,101181.25
2023-05-08T04:31:16.070Z,101188.44
2023-05-08T04:33:46.832Z,101186.23
2023-05-08T04:36:14.361Z,101188.96
2023-05-08T04:38:42.634Z,101191.90
2023-05-08T04:41:10.025Z,101196.66
2023-05-08T04:43:38.223Z,101200.10
2023-05-08T04:46:06.264Z,101201.28
2023-05-08T04:48:34.058Z,101204.06
2023-05-08T04:51:01.453Z,101207.49
2023-05-08T04:53:28.581Z,101207.46
2023-05-08T04:55:55.515Z,101208.59
2023-05-08T04:58:22.646Z,101209.27
2023-05-08T05:00:50.778Z,101209.39
2023-05-08T05:03:18.060Z,101209.02
2023-05-08T05:05:45.693Z,101213.34
2023-05-08T05:08:12.832Z,101214.70
2023-05-08T05:10:40.812Z,101217.08
2023-05-08T05:13:08.141Z,101220.84
2023-05-08T05:15:35.558Z,101218.73
2023-05-08T05:18:02.732Z,101219.77
2023-05-08T05:20:32.397Z,101223.25
2023-05-08T05:22:59.308Z,101228.04
2023-05-08T05:25:26.182Z,101228.13
2023-05-08T05:27:53.255Z,101228.73
2023-05-08T05:30:20.396Z,101226.50
2023-05-08T05:32:47.782Z,101226.88
2023-05-08T05:35:15.384Z,101228.20
2023-05-08T05:37:43.240Z,101224.40
2023-05-08T05:40:13.479Z,101227.02
2023-05-08T05:42:41.249Z,101229.00
2023-05-08T05:45:08.988Z,101228.95
2023-05-08T05:47:35.952Z,101226.95
2023-05-08T05:50:04.794Z,101227.73
2023-05-08T05:52:33.358Z,101228.35
2023-05-08T05:55:00.603Z,101226.13
2023-05-08T05:57:27.852Z,101223.91
2023-05-08T05:59:55.071Z,101224.34
2023-05-08T06:02:22.729Z,101225.23
2023-05-08T06:04:52.082Z,101223.60
2023-05-08T06:07:20.923Z,101224.23
2023-05-08T06:09:48.162Z,101220.42
2023-05-08T06:12:15.097Z,101219.88
2023-05-08T06:14:42.000Z,101218.09
2023-05-08T06:17:09.099Z,101213.95
2023-05-08T06:19:36.887Z,101209.01
2023-05-08T06:22:03.689Z,101211.55
2023-05-08T06:24:30.672Z,101214.95
2023-05-08T06:26:57.522Z,101216.73
2023-05-08T06:29:24.582Z,101220.73
2023-05-08T06:31:51.460Z,101220.68
2023-05-08T06:34:18.364Z,101223.19
2023-05-08T06:36:45.542Z,101225.73
2023-05-08T06:39:12.746Z,101226.60
2023-05-08T06:41:39.694Z,101224.51
2023-05-08T06:44:06.501Z,101228.67
2023-05-08T06:46:33.698Z,101234.21
2023-05-08T06:49:00.949Z,101233.75
2023-05-08T06:51:27.811Z,101232.37
2023-05-08T06:53:54.695Z,101236.08
2023-05-08T06:56:22.988Z,101235.30
2023-05-08T06:58:57.057Z,101235.50
2023-05-08T07:01:31.756Z,101234.20
2023-05-08T07:03:58.993Z,101227.45
2023-05-08T07:06:25.769Z,101228.38
2023-05-08T07:08:52.716Z,101230.69
2023-05-08T07:11:19.524Z,101233.36
2023-05-08T07:13:48.425Z,101231.10
2023-05-08T07:16:16.400Z,101228.23
2023-05-08T07:18:43.898Z,101221.86
2023-05-08T07:21:11.056Z,101217.72
2023-05-08T07:23:37.972Z,101217.98
2023-05-08T07:26:04.854Z,101224.52
2023-05-08T07:28:31.735Z,101224.27
2023-05-08T07:30:58.532Z,101224.89
2023-05-08T07:33:25.502Z,101228.39
2023-05-08T07:35:52.883Z,101232.81
2023-05-08T07:38:19.624Z,101233.65
2023-05-08T07:40:46.407Z,101232.53
2023-05-08T07:43:15.048Z,101229.70
2023-05-08T07:45:41.830Z,101234.37
2023-05-08T07:48:09.049Z,101230.54
2023-05-08T07:50:36.533Z,101227.46
2023-05-08T07:53:03.360Z,101228.85
2023-05-08T07:55:30.247Z,101229.55
2023-05-08T07:57:57.105Z,101227.57
2023-05-08T08:00:24.108Z,101225.66
2023-05-08T08:02:51.045Z,101219.32
2023-05-08T08:05:18.036Z,101215.68
2023-05-08T08:07:45.106Z,101218.58
2023-05-08T08:10:12.564Z,101224.74
2023-05-08T08:12:39.491Z,101216.81
2023-05-08T08:15:06.793Z,101214.67
2023-05-08T08:17:33.636Z,101212.98
2023-05-08T08:20:00.866Z,101215.21
2023-05-08T08:22:27.667Z,101215.27
2023-05-08T08:24:57.825Z,101213.88
2023-05-08T08:27:24.661Z,101213.75
2023-05-08T08:29:58.531Z,101211.43
2023-05-08T08:32:31.902Z,101205.36
2023-05-08T08:34:58.989Z,101202.65
2023-05-08T08:37:26.362Z,101199.59
2023-05-08T08:39:53.756Z,101199.01
2023-05-08T08:42:20.566Z,101198.61
2023-05-08T08:44:47.479Z,101199.59
2023-05-08T08:47:14.571Z,101192.09
2023-05-08T08:49:43.757Z,101193.20
2023-05-08T08:52:27.028Z,101197.55
2023-05-08T08:54:53.998Z,101197.75
2023-05-08T08:57:20.780Z,101195.09
2023-05-08T08:59:47.568Z,101196.83
2023-05-08T09:02:18.278Z,101193.52
2023-05-08T09:04:45.462Z,101193.48
2023-05-08T09:07:12.286Z,101195.11
2023-05-08T09:09:41.031Z,101192.81
2023-05-08T09:12:08.308Z,101190.84
2023-05-08T09:14:35.628Z,101193.69
2023-05-08T09:17:02.622Z,101194.35
2023-05-08T09:19:29.719Z,101194.54
2023-05-08T09:21:59.327Z,101196.02
2023-05-08T09:24:29.127Z,101193.14
2023-05-08T09:26:57.565Z,101192.90
2023-05-08T09:29:24.400Z,101192.52
2023-05-08T09:31:52.588Z,101194.74
2023-05-08T09:34:28.109Z,101191.41
2023-05-08T09:36:55.875Z,101190.59
2023-05-08T09:39:24.634Z,101190.59
2023-05-08T09:41:58.937Z,101184.02
2023-05-08T09:44:25.709Z,101186.80
2023-05-08T09:46:53.939Z,101187.04
2023-05-08T09:49:20.763Z,101190.06
2023-05-08T09:51:54.081Z,101190.52
2023-05-08T09:54:20.990Z,101193.56
2023-05-08T09:56:47.824Z,101191.45
2023-05-08T09:59:28.457Z,101186.74
2023-05-08T10:01:56.010Z,101179.55
2023-05-08T10:09:12.728Z,101173.52
2023-05-08T10:11:52.093Z,101172.98
2023-05-08T10:14:19.767Z,101168.54
2023-05-08T10:16:49.259Z,101162.57
2023-05-08T10:19:17.571Z,101167.95
2023-05-08T10:21:49.454Z,101169.88
2023-05-08T10:24:17.986Z,101170.58
2023-05-08T10:27:17.274Z,101173.38
2023-05-08T10:29:52.269Z,101178.81
2023-05-08T10:32:23.584Z,101176.71
2023-05-08T10:34:53.193Z,101173.77
2023-05-08T10:37:20.188Z,101170.83
2023-05-08T10:39:47.141Z,101174.36
2023-05-08T10:42:14.398Z,101171.64
2023-05-08T10:44:41.374Z,101172.45
2023-05-08T10:47:15.177Z,101166.30
2023-05-08T10:49:49.831Z,101167.31
2023-05-08T10:52:21.207Z,101165.09
2023-05-08T10:54:54.036Z,101167.63
2023-05-08T10:57:20.948Z,101165.10
2023-05-08T10:59:48.122Z,101159.70
2023-05-08T11:02:15.772Z,101152.04
2023-05-08T11:04:43.945Z,101153.21
2023-05-08T11:07:11.640Z,101155.27
2023-05-08T11:09:41.804Z,101157.13
2023-05-08T11:12:27.319Z,101153.99
2023-05-08T11:15:03.122Z,101156.14
2023-05-08T11:17:30.059Z,101151.91
2023-05-08T11:19:58.798Z,101147.83
2023-05-08T11:22:28.532Z,101145.21
2023-05-08T11:24:59.409Z,101141.66
2023-05-08T11:27:32.715Z,101138.27
2023-05-08T11:30:22.879Z,101137.32
2023-05-08T11:32:57.201Z,101138.71
2023-05-08T11:35:49.040Z,101135.27
2023-05-08T11:38:27.967Z,101137.13
2023-05-08T11:41:00.868Z,101135.85
2023-05-08T11:43:33.897Z,101139.94
2023-05-08T11:46:04.142Z,101130.09
2023-05-08T11:48:31.793Z,101129.69
2023-05-08T11:51:02.368Z,101131.42
2023-05-08T11:53:30.568Z,101131.60
2023-05-08T11:55:57.605Z,101127.83
2023-05-08T11:58:24.678Z,101132.08
2023-05-08T12:00:51.972Z,101136.65
2023-05-08T12:03:20.384Z,101141.20
2023-05-08T12:05:47.662Z,101135.16
2023-05-08T12:08:14.876Z,101130.15
2023-05-08T12:10:53.944Z,101127.36
2023-05-08T12:13:30.332Z,101127.70
2023-05-08T12:15:58.919Z,101128.75
2023-05-08T12:18:26.849Z,101127.91
2023-05-08T12:20:54.275Z,101125.80
2023-05-08T12:23:21.219Z,101122.19
2023-05-08T12:25:48.172Z,101119.73
2023-05-08T12:28:15.086Z,101119.02
2023-05-08T12:30:41.926Z,101119.25
2023-05-08T12:33:08.866Z,101119.32
2023-05-08T12:35:35.824Z,101116.80
2023-05-08T12:38:03.593Z,101117.65
2023-05-08T12:40:32.442Z,101119.60
2023-05-08T12:43:03.514Z,101116.74
2023-05-08T12:45:33.752Z,101113.52
2023-05-08T12:48:04.864Z,101109.58
2023-05-08T12:50:35.816Z,101105.27
2023-05-08T12:53:06.786Z,101109.89
2023-05-08T12:55:35.365Z,101107.45
2023-05-08T12:58:15.195Z,101109.05
2023-05-08T13:00:46.749Z,101108.86
2023-05-08T13:03:21.486Z,101107.27
2023-05-08T13:05:48.520Z,101100.38
2023-05-08T13:08:15.637Z,101102.17
2023-05-08T13:10:52.966Z,101099.57
2023-05-08T13:13:24.999Z,101095.33
2023-05-08T13:15:53.095Z,101095.66
2023-05-08T13:18:21.891Z,101096.99
2023-05-08T13:20:48.966Z,101097.88
2023-05-08T13:23:16.004Z,101094.11
2023-05-08T13:25:43.066Z,101098.98
2023-05-08T13:28:10.257Z,101098.41
2023-05-08T13:30:37.917Z,101096.66
2023-05-08T13:33:05.073Z,101095.42
2023-05-08T13:35:32.873Z,101099.83
2023-05-08T13:38:01.769Z,101098.73
2023-05-08T13:40:31.613Z,101099.42
2023-05-08T13:43:00.804Z,101097.73
2023-05-08T13:45:30.819Z,101096.19
2023-05-08T13:48:00.914Z,101095.61
2023-05-08T13:50:30.366Z,101094.56
2023-05-08T13:53:00.866Z,101092.81
2023-05-08T13:55:29.929Z,101093.52
2023-05-08T13:57:59.784Z,101097.08
2023-05-08T14:00:30.174Z,101097.27
2023-05-08T14:02:59.927Z,101096.22
2023-05-08T14:05:28.900Z,101098.21
2023-05-08T14:07:58.254Z,101099.27
2023-05-08T14:10:27.746Z,101100.33
2023-05-08T14:12:57.801Z,101104.29
2023-05-08T14:15:36.563Z,101102.13
2023-05-08T14:18:07.011Z,101099.61
2023-05-08T14:20:37.203Z,101099.45
2023-05-08T14:23:06.446Z,101099.77
2023-05-08T14:25:35.846Z,101100.72
2023-05-08T14:28:06.880Z,101101.94
2023-05-08T14:35:20.870Z,101109.84
2023-05-08T14:37:50.879Z,101106.91
2023-05-08T14:46:31.388Z,101101.77
2023-05-08T14:48:58.655Z,101100.20
2023-05-08T14:51:25.877Z,101101.75
2023-05-08T14:53:52.869Z,101100.38
2023-05-08T14:56:24.495Z,101099.88
2023-05-08T14:58:52.144Z,101098.45
2023-05-08T15:01:19.133Z,101096.30
2023-05-08T15:03:52.996Z,101099.81
2023-05-08T15:06:22.086Z,101100.98
2023-05-08T15:08:49.235Z,101107.88
2023-05-08T15:11:16.239Z,101110.94
2023-05-08T15:13:43.236Z,101114.30
2023-05-08T15:16:10.453Z,101107.81
2023-05-08T15:18:37.334Z,101108.30
2023-05-08T15:21:04.756Z,101109.95
2023-05-08T15:23:31.874Z,101112.03
2023-05-08T15:25:58.703Z,101111.77
2023-05-08T15:28:25.755Z,101110.37
2023-05-08T15:30:52.690Z,101111.92
2023-05-08T15:33:20.030Z,101117.64
2023-05-08T15:35:47.179Z,101117.55
2023-05-08T15:38:14.125Z,101116.27
2023-05-08T15:40:41.179Z,101119.33
2023-05-08T15:43:08.177Z,101118.35
2023-05-08T15:45:35.087Z,101116.36
2023-05-08T15:48:02.249Z,101116.48
2023-05-08T15:50:29.261Z,101114.77
2023-05-08T15:52:56.321Z,101114.88
2023-05-08T15:55:23.484Z,101114.28
2023-05-08T15:57:50.457Z,101114.48
2023-05-08T16:00:17.960Z,101116.70
2023-05-08T16:02:44.945Z,101117.02
2023-05-08T16:05:12.096Z,101121.86
2023-05-08T16:07:39.361Z,101120.73
2023-05-08T16:10:07.440Z,101121.49
2023-05-08T16:12:34.650Z,101129.06
2023-05-08T16:15:01.573Z,101127.01
2023-05-08T16:17:28.672Z,101130.05
2023-05-08T16:19:55.698Z,101129.82
2023-05-08T16:22:23.322Z,101130.27
2023-05-08T16:24:52.708Z,101134.59
2023-05-08T16:27:19.687Z,101134.32
2023-05-08T16:29:46.530Z,101132.21
2023-05-08T16:32:13.485Z,101132.95
2023-05-08T16:34:40.245Z,101136.45
2023-05-08T16:37:07.112Z,101140.19
2023-05-08T16:39:34.774Z,101140.98
2023-05-08T16:42:01.950Z,101140.14
2023-05-08T16:44:29.230Z,101139.51
2023-05-08T16:46:56.284Z,101140.10
2023-05-08T16:49:23.168Z,101137.89
2023-05-08T16:51:50.396Z,101141.21
2023-05-08T16:54:17.316Z,101143.42
2023-05-08T16:56:44.265Z,101146.92
2023-05-08T16:59:11.381Z,101153.82
2023-05-08T17:01:38.397Z,101155.95
2023-05-08T17:04:05.454Z,101160.23
2023-05-08T17:06:33.181Z,101163.94
2023-05-08T17:09:00.021Z,101166.13
2023-05-08T17:11:26.877Z,101169.60
2023-05-08T17:13:53.873Z,101173.84
2023-05-08T17:16:20.842Z,101178.43
2023-05-08T17:18:47.996Z,101183.13
2023-05-08T17:21:14.869Z,101187.46
2023-05-08T17:23:41.938Z,101189.41
2023-05-08T17:26:09.455Z,101191.70
2023-05-08T17:28:37.218Z,101193.33
2023-05-08T17:31:04.061Z,101197.28
2023-05-08T17:33:30.958Z,101197.19
2023-05-08T17:35:57.724Z,101200.41
2023-05-08T17:38:24.544Z,101206.38
2023-05-08T17:40:51.639Z,101212.38
2023-05-08T17:43:20.510Z,101213.09
2023-05-08T17:45:47.728Z,101214.89
2023-05-08T17:48:14.652Z,101220.58
2023-05-08T17:50:43.665Z,101225.38
2023-05-08T17:53:10.578Z,101229.88
2023-05-08T17:55:37.622Z,101234.45
2023-05-08T17:58:04.555Z,101235.58
2023-05-08T18:00:31.596Z,101242.04
2023-05-08T18:02:58.697Z,101241.33
2023-05-08T18:05:25.751Z,101246.77
2023-05-08T18:07:54.010Z,101251.27
2023-05-08T18:10:21.325Z,101253.61
2023-05-08T18:12:48.226Z,101256.30
2023-05-08T18:15:15.033Z,101258.93
2023-05-08T18:17:42.330Z,101259.96
2023-05-08T18:20:10.009Z,101262.34
2023-05-08T18:22:36.883Z,101257.44
2023-05-08T18:25:04.016Z,101259.67
2023-05-08T18:27:33.481Z,101262.24
2023-05-08T18:30:00.523Z,101263.95
2023-05-08T18:32:27.971Z,101265.60
2023-05-08T18:34:55.774Z,101263.46
2023-05-08T18:37:23.312Z,101264.97
2023-05-08T18:39:50.424Z,101269.29
2023-05-08T18:42:17.308Z,101271.73
2023-05-08T18:44:44.427Z,101271.79
2023-05-08T18:47:11.369Z,101269.29
2023-05-08T18:49:38.381Z,101270.29
2023-05-08T18:52:05.538Z,101272.27
2023-05-08T18:54:32.338Z,101278.34
2023-05-08T18:56:59.234Z,101279.50
2023-05-08T18:59:26.279Z,101283.26
2023-05-08T19:01:53.133Z,101285.16
2023-05-08T19:04:20.263Z,101285.90
2023-05-08T19:06:47.207Z,101287.17
2023-05-08T19:09:14.161Z,101290.88
2023-05-08T19:11:41.101Z,101288.95
2023-05-08T19:14:07.980Z,101290.35
2023-05-08T19:16:34.820Z,101290.32
2023-05-08T19:19:01.733Z,101295.69
2023-05-08T19:21:29.390Z,101295.16
2023-05-08T19:23:56.195Z,101291.16
2023-05-08T19:26:23.501Z,101288.25
2023-05-08T19:28:50.370Z,101284.21
2023-05-08T19:31:17.255Z,101285.14
2023-05-08T19:33:44.424Z,101285.75
2023-05-08T19:36:11.369Z,101288.55
2023-05-08T19:38:40.128Z,101286.94
2023-05-08T19:41:07.347Z,101283.88
2023-05-08T19:43:34.200Z,101288.96
2023-05-08T19:46:01.567Z,101293.13
2023-05-08T19:48:28.554Z,101294.30
2023-05-08T19:50:55.599Z,101292.71
2023-05-08T19:53:23.574Z,101293.71
2023-05-08T19:55:50.501Z,101291.90
2023-05-08T19:58:18.055Z,101293.48
2023-05-08T20:00:50.872Z,101290.48
2023-05-08T20:03:18.358Z,101290.41
2023-05-08T20:05:45.409Z,101294.17
2023-05-08T20:08:12.211Z,101293.55
2023-05-08T20:10:39.150Z,101296.81
2023-05-08T20:13:06.037Z,101294.56
2023-05-08T20:15:32.989Z,101292.79
2023-05-08T20:17:59.911Z,101289.33
2023-05-08T20:20:29.298Z,101291.34
2023-05-08T20:22:56.639Z,101287.83
2023-05-08T20:25:23.745Z,101291.20
2023-05-08T20:27:50.589Z,101292.27
2023-05-08T20:30:17.504Z,101291.75
2023-05-08T20:32:44.355Z,101295.33
2023-05-08T20:35:11.521Z,101295.80
2023-05-08T20:37:43.855Z,101292.05
2023-05-08T20:40:11.674Z,101291.27
2023-05-08T20:42:40.802Z,101295.27
2023-05-08T20:45:11.530Z,101293.50
2023-05-08T20:47:38.442Z,101292.63
2023-05-08T20:50:06.460Z,101294.48
2023-05-08T20:52:34.600Z,101292.81
2023-05-08T20:55:03.139Z,101291.64
2023-05-08T20:57:29.981Z,101294.53
2023-05-08T20:59:56.838Z,101295.52
2023-05-08T21:02:23.896Z,101296.67
2023-05-08T21:04:50.797Z,101296.55
2023-05-08T21:07:17.842Z,101296.52
2023-05-08T21:09:44.705Z,101296.25
2023-05-08T21:12:11.648Z,101298.40
2023-05-08T21:14:38.590Z,101299.44
2023-05-08T21:17:05.411Z,101301.89
2023-05-08T21:19:32.356Z,101298.27
2023-05-08T21:21:59.321Z,101297.84
2023-05-08T21:24:26.452Z,101298.27
2023-05-08T21:26:53.607Z,101297.20
2023-05-08T21:29:20.653Z,101297.91
2023-05-08T21:31:47.599Z,101296.88
2023-05-08T21:34:15.675Z,101297.77
2023-05-08T21:36:42.490Z,101296.45
2023-05-08T21:39:09.590Z,101294.63
2023-05-08T21:41:36.663Z,101294.52
2023-05-08T21:44:03.524Z,101294.29
2023-05-08T21:46:30.874Z,101290.89
2023-05-08T21:48:58.064Z,101295.95
2023-05-08T21:51:25.728Z,101292.35
2023-05-08T21:53:52.737Z,101294.52
2023-05-08T21:56:19.875Z,101295.92
2023-05-08T21:58:46.792Z,101297.83
2023-05-08T22:01:17.728Z,101299.52
2023-05-08T22:03:45.526Z,101298.02
2023-05-08T22:06:12.654Z,101294.00
2023-05-08T22:08:39.478Z,101296.23
2023-05-08T22:11:06.291Z,101293.58
2023-05-08T22:13:34.637Z,101294.66
2023-05-08T22:16:01.446Z,101297.92
2023-05-08T22:18:28.474Z,101297.90
2023-05-08T22:20:57.012Z,101292.48
2023-05-08T22:23:23.908Z,101293.86
2023-05-08T22:25:51.429Z,101295.04
2023-05-08T22:28:18.292Z,101292.48
2023-05-08T22:30:45.275Z,101291.42
2023-05-08T22:33:12.285Z,101287.80
2023-05-08T22:35:39.166Z,101289.80
2023-05-08T22:38:06.150Z,101290.44
2023-05-08T22:40:33.536Z,101286.24
2023-05-08T22:43:00.794Z,101287.70
2023-05-08T22:45:27.767Z,101283.98
2023-05-08T22:47:57.285Z,101282.20
2023-05-08T22:50:24.235Z,101279.48
2023-05-08T22:52:51.040Z,101278.24
2023-05-08T22:55:17.990Z,101280.29
2023-05-08T22:57:45.927Z,101278.27
2023-05-08T23:00:13.725Z,101278.80
2023-05-08T23:02:41.771Z,101274.74
2023-05-08T23:05:09.556Z,101273.52
2023-05-08T23:07:38.370Z,101279.75
2023-05-08T23:10:06.830Z,101284.28
2023-05-08T23:12:33.857Z,101283.59
2023-05-08T23:15:01.936Z,101284.50
2023-05-08T23:17:28.992Z,101281.98
2023-05-08T23:19:56.907Z,101283.39
2023-05-08T23:22:24.779Z,101281.61
2023-05-08T23:24:52.250Z,101282.73
2023-05-08T23:27:19.919Z,101278.33
2023-05-08T23:29:47.716Z,101283.39
2023-05-08T23:32:16.074Z,101279.88
2023-05-08T23:34:43.329Z,101282.37
2023-05-08T23:37:11.706Z,101285.31
2023-05-08T23:39:41.440Z,101288.25
2023-05-08T23:42:09.416Z,101289.63
2023-05-08T23:44:36.443Z,101287.98
2023-05-08T23:47:03.564Z,101290.54
2023-05-08T23:49:30.689Z,101290.77
2023-05-08T23:51:58.810Z,101290.54
2023-05-08T23:54:25.729Z,101289.39
2023-05-08T23:56:52.564Z,101292.91
2023-05-08T23:59:19.557Z,101293.51
